Details From HEMM - Mersa Matruh
To HECA - Cairo Intl
Flight Number -
Tags Decoded
Created
Modified
Stats Distance 276 nm / 510 km
Max Altitude 0 ft / 0 m
Waypoints 4
Social Downloads 2
Likes 0
Share VATSIM

Download

Looking for another format? Having issues loading an existing format? Contact us
Advertisement - Login to hide

Notes

Decoded

Route

HEMM DBA FYM HECA

ID Type Via Altitude Latitude Longitude Leg Dist Tot Dist Heading (true) Name
O HEMM APT - 0 ft / 0 m 31.33706˚ 27.21371˚ - 0 nm - -
DBA VOR - 0 ft / 0 m 31.01139˚ 28.46694˚ 67 nm 67 nm 107° / 107° EL DABA VOR-DME
FYM VOR - 0 ft / 0 m 29.39750˚ 30.39306˚ 139 nm 206 nm 134° / 135° FAYOUM VOR-DME
O HECA APT - 0 ft / 0 m 30.13821˚ 31.40615˚ 69 nm 275 nm 50° / 50° -

Altitude Profile

Advertisement - Login to hide

Weather


0- 5 10 15 20 25 30 35+ Temperature / ° C

Clouds and Precipitation
Forecast for 2018-05-27 18:00 UTC. Updated 5 hours ago

Ground ~20,000 ft ~40,000 ft Winds

HEMM

Details ICAO HEMM (MUH)
Name MERSA MATRUH
Region Egypt
Timezone Africa/Cairo (UTC+2.0)
Stats Elevation 94 ft / 29 m (AMSL)
Location 31.327068° 27.225097°
Runways 2
Magnetic Variation 4.273° E

METAR

HEMM 272200Z 32009KT 9999 SCT020 22/20 Q1014 NOSIG

Decode

TAF

TAF HEMM 271700Z 2718/2824 33010KT 9999 FEW020

Decode

Departure Runways

ID Width Length Bearing (true) Bearing (mag) Surface Threshold Offset Overrun Length
06 148 ft / 45 m 9,826 ft / 2,995 m 59.88° 55.61° Asphalt 160 ft / 49 m 0 ft / 0 m
15 148 ft / 45 m 9,871 ft / 3,009 m 149.80° 145.53° Asphalt 0 ft / 0 m 80 ft / 24 m
24 148 ft / 45 m 9,826 ft / 2,995 m 239.90° 235.63° Asphalt 160 ft / 49 m 0 ft / 0 m
33 148 ft / 45 m 9,871 ft / 3,009 m 329.81° 325.54° Asphalt 0 ft / 0 m 0 ft / 0 m

HECA

Details ICAO HECA (CAI)
Name Cairo Intl
Region Egypt
Timezone Africa/Cairo (UTC+2.0)
Stats Elevation 382 ft / 116 m (AMSL)
Location 30.121808° 31.406095°
Runways 3
Magnetic Variation 4.442° E

METAR

HECA 272200Z 04011KT CAVOK 24/18 Q1012

Decode

TAF

TAF HECA 271700Z 2718/2824 03010KT 9999 SCT025= TAF HEAX 271700Z 2718/2824 31010KT 9999 FEW020 TEMPO 2800/2806 VRB03KT 3000 BR NSC PROB30 TEMPO 2801/2806 0500 FG

Decode

Destination Runways

ID Width Length Bearing (true) Bearing (mag) Surface Threshold Offset Overrun Length
05L 197 ft / 60 m 10,833 ft / 3,302 m 49.29° 44.85° Asphalt 0 ft / 0 m 185 ft / 56 m
05R 197 ft / 60 m 13,126 ft / 4,001 m 49.03° 44.59° Asphalt 0 ft / 0 m 216 ft / 66 m
16 197 ft / 60 m 10,456 ft / 3,187 m 162.61° 158.17° Asphalt 0 ft / 0 m 125 ft / 38 m
23L 197 ft / 60 m 13,126 ft / 4,001 m 229.05° 224.61° Asphalt 0 ft / 0 m 225 ft / 69 m
23R 197 ft / 60 m 10,833 ft / 3,302 m 229.30° 224.86° Asphalt 0 ft / 0 m 185 ft / 56 m
34 197 ft / 60 m 10,456 ft / 3,187 m 342.61° 338.17° Asphalt 0 ft / 0 m 195 ft / 59 m

Approach Navaids

Runway Type Ident Frequency Range Bearing (true) Bearing (mag) Slope Elevation
05L Localiser CRL 110.90 MHz 18 nm / 33 km 49.27° 44.83° - 210 ft / 64 m (AMSL)
05L Glidescope CRL 110.90 MHz 10 nm / 19 km 49.29° 44.85° 3.00° 230 ft / 70 m (AMSL)
05L DME CRL 110.90 MHz 18 nm / 33 km - - - 230 ft / 70 m (AMSL)
05R Localiser IROT 109.90 MHz 18 nm / 33 km 49.04° 44.60° - 410 ft / 125 m (AMSL)
05R Glidescope IROT 109.90 MHz 10 nm / 19 km 49.04° 44.60° 3.00° 430 ft / 131 m (AMSL)
05R DME IROT 109.90 MHz 18 nm / 33 km - - - 430 ft / 131 m (AMSL)
23L Localiser ILOT 109.50 MHz 18 nm / 33 km 229.08° 224.64° - 420 ft / 128 m (AMSL)
23L Glidescope ILOT 109.50 MHz 10 nm / 19 km 229.04° 224.60° 3.00° 420 ft / 128 m (AMSL)
23L DME ILOT 109.50 MHz 18 nm / 33 km - - - 420 ft / 128 m (AMSL)
23R Localiser CRR 110.30 MHz 18 nm / 33 km 229.29° 224.85° - 210 ft / 64 m (AMSL)
23R Glidescope CRR 110.30 MHz 10 nm / 19 km 229.29° 224.85° 3.00° 230 ft / 70 m (AMSL)
23R DME CRR 110.30 MHz 18 nm / 33 km - - - 230 ft / 70 m (AMSL)

Popular Alternatives